sensor_id;sensor_type;location;lat;lon;timestamp;temperature;humidity
23562;DHT22;11959;49.418;8.728;2023-02-15T00:00:16;1.80;99.90
23562;DHT22;11959;49.418;8.728;2023-02-15T00:02:42;1.70;99.90
23562;DHT22;11959;49.418;8.728;2023-02-15T00:05:08;1.80;99.90
23562;DHT22;11959;49.418;8.728;2023-02-15T00:07:34;1.80;99.90
23562;DHT22;11959;49.418;8.728;2023-02-15T00:10:00;1.80;99.90
23562;DHT22;11959;49.418;8.728;2023-02-15T00:12:25;1.80;99.90
23562;DHT22;11959;49.418;8.728;2023-02-15T00:14:51;1.80;99.90
23562;DHT22;11959;49.418;8.728;2023-02-15T00:17:17;1.80;99.90
23562;DHT22;11959;49.418;8.728;2023-02-15T00:19:42;1.80;99.90
23562;DHT22;11959;49.418;8.728;2023-02-15T00:22:08;1.80;99.90
23562;DHT22;11959;49.418;8.728;2023-02-15T00:24:34;1.80;99.90
23562;DHT22;11959;49.418;8.728;2023-02-15T00:27:00;1.80;99.90
23562;DHT22;11959;49.418;8.728;2023-02-15T00:29:26;1.70;99.90
23562;DHT22;11959;49.418;8.728;2023-02-15T00:31:51;1.70;99.90
23562;DHT22;11959;49.418;8.728;2023-02-15T00:34:20;1.70;99.90
23562;DHT22;11959;49.418;8.728;2023-02-15T00:36:46;1.70;99.90
23562;DHT22;11959;49.418;8.728;2023-02-15T00:39:12;1.70;99.90
23562;DHT22;11959;49.418;8.728;2023-02-15T00:41:38;1.70;99.90
23562;DHT22;11959;49.418;8.728;2023-02-15T00:44:05;1.70;99.90
23562;DHT22;11959;49.418;8.728;2023-02-15T00:46:31;1.80;99.90
23562;DHT22;11959;49.418;8.728;2023-02-15T00:48:56;1.70;99.90
23562;DHT22;11959;49.418;8.728;2023-02-15T00:51:22;1.70;99.90
23562;DHT22;11959;49.418;8.728;2023-02-15T00:53:48;1.70;99.90
23562;DHT22;11959;49.418;8.728;2023-02-15T00:56:14;1.80;99.90
23562;DHT22;11959;49.418;8.728;2023-02-15T00:58:39;1.70;99.90
23562;DHT22;11959;49.418;8.728;2023-02-15T01:01:11;1.70;99.90
23562;DHT22;11959;49.418;8.728;2023-02-15T01:03:37;1.70;99.90
23562;DHT22;11959;49.418;8.728;2023-02-15T01:06:03;1.80;99.90
23562;DHT22;11959;49.418;8.728;2023-02-15T01:08:29;1.80;99.90
23562;DHT22;11959;49.418;8.728;2023-02-15T01:10:55;1.80;99.90
23562;DHT22;11959;49.418;8.728;2023-02-15T01:13:21;1.80;99.90
23562;DHT22;11959;49.418;8.728;2023-02-15T01:15:53;1.80;99.90
23562;DHT22;11959;49.418;8.728;2023-02-15T01:18:20;1.80;99.90
23562;DHT22;11959;49.418;8.728;2023-02-15T01:20:46;1.80;99.90
23562;DHT22;11959;49.418;8.728;2023-02-15T01:23:13;1.80;99.90
23562;DHT22;11959;49.418;8.728;2023-02-15T01:25:38;1.80;99.90
23562;DHT22;11959;49.418;8.728;2023-02-15T01:28:04;1.90;99.90
23562;DHT22;11959;49.418;8.728;2023-02-15T01:30:32;1.90;99.90
23562;DHT22;11959;49.418;8.728;2023-02-15T01:32:58;1.90;99.90
23562;DHT22;11959;49.418;8.728;2023-02-15T01:35:24;1.90;99.90
23562;DHT22;11959;49.418;8.728;2023-02-15T01:37:50;2.00;99.90
23562;DHT22;11959;49.418;8.728;2023-02-15T01:40:17;2.00;99.90
23562;DHT22;11959;49.418;8.728;2023-02-15T01:42:43;1.90;99.90
23562;DHT22;11959;49.418;8.728;2023-02-15T01:50:49;2.00;99.90
23562;DHT22;11959;49.418;8.728;2023-02-15T01:53:29;2.00;99.90
23562;DHT22;11959;49.418;8.728;2023-02-15T01:56:04;2.00;99.90
23562;DHT22;11959;49.418;8.728;2023-02-15T01:58:32;2.00;99.90
23562;DHT22;11959;49.418;8.728;2023-02-15T02:00:59;2.10;99.90
23562;DHT22;11959;49.418;8.728;2023-02-15T02:03:56;2.10;99.90
23562;DHT22;11959;49.418;8.728;2023-02-15T02:06:24;2.20;99.90
23562;DHT22;11959;49.418;8.728;2023-02-15T02:08:52;2.20;99.90
23562;DHT22;11959;49.418;8.728;2023-02-15T02:11:18;2.30;99.90
23562;DHT22;11959;49.418;8.728;2023-02-15T02:13:44;2.30;99.90
23562;DHT22;11959;49.418;8.728;2023-02-15T02:22:46;2.30;99.90
23562;DHT22;11959;49.418;8.728;2023-02-15T02:44:10;2.30;99.90
23562;DHT22;11959;49.418;8.728;2023-02-15T02:46:54;2.30;99.90
23562;DHT22;11959;49.418;8.728;2023-02-15T02:49:38;2.30;99.90
23562;DHT22;11959;49.418;8.728;2023-02-15T02:52:40;2.40;99.90
23562;DHT22;11959;49.418;8.728;2023-02-15T03:00:55;2.30;99.90
23562;DHT22;11959;49.418;8.728;2023-02-15T03:03:29;2.30;99.90
23562;DHT22;11959;49.418;8.728;2023-02-15T03:05:59;2.30;99.90
23562;DHT22;11959;49.418;8.728;2023-02-15T03:08:29;2.30;99.90
23562;DHT22;11959;49.418;8.728;2023-02-15T03:11:00;2.40;99.90
23562;DHT22;11959;49.418;8.728;2023-02-15T03:13:27;2.40;99.90
23562;DHT22;11959;49.418;8.728;2023-02-15T03:15:54;2.40;99.90
23562;DHT22;11959;49.418;8.728;2023-02-15T03:18:43;2.30;99.90
23562;DHT22;11959;49.418;8.728;2023-02-15T03:21:23;2.40;99.90
23562;DHT22;11959;49.418;8.728;2023-02-15T03:24:03;2.30;99.90
23562;DHT22;11959;49.418;8.728;2023-02-15T03:26:30;2.30;99.90
23562;DHT22;11959;49.418;8.728;2023-02-15T03:28:59;2.40;99.90
23562;DHT22;11959;49.418;8.728;2023-02-15T03:31:32;2.30;99.90
23562;DHT22;11959;49.418;8.728;2023-02-15T03:34:02;2.30;99.90
23562;DHT22;11959;49.418;8.728;2023-02-15T03:36:46;2.40;99.90
23562;DHT22;11959;49.418;8.728;2023-02-15T03:39:29;2.40;99.90
23562;DHT22;11959;49.418;8.728;2023-02-15T03:42:07;2.30;99.90
23562;DHT22;11959;49.418;8.728;2023-02-15T03:44:44;2.40;99.90
23562;DHT22;11959;49.418;8.728;2023-02-15T03:47:16;2.40;99.90
23562;DHT22;11959;49.418;8.728;2023-02-15T03:49:59;2.30;99.90
23562;DHT22;11959;49.418;8.728;2023-02-15T03:52:27;2.40;99.90
23562;DHT22;11959;49.418;8.728;2023-02-15T03:54:54;2.30;99.90
23562;DHT22;11959;49.418;8.728;2023-02-15T03:57:26;2.40;99.90
23562;DHT22;11959;49.418;8.728;2023-02-15T04:05:30;2.30;99.90
23562;DHT22;11959;49.418;8.728;2023-02-15T04:07:56;2.30;99.90
23562;DHT22;11959;49.418;8.728;2023-02-15T04:10:21;2.30;99.90
23562;DHT22;11959;49.418;8.728;2023-02-15T04:13:06;2.40;99.90
23562;DHT22;11959;49.418;8.728;2023-02-15T04:15:31;2.40;99.90
23562;DHT22;11959;49.418;8.728;2023-02-15T04:18:15;2.40;99.90
23562;DHT22;11959;49.418;8.728;2023-02-15T04:20:44;2.40;99.90
23562;DHT22;11959;49.418;8.728;2023-02-15T04:23:28;2.40;99.90
23562;DHT22;11959;49.418;8.728;2023-02-15T04:26:12;2.40;99.90
23562;DHT22;11959;49.418;8.728;2023-02-15T04:28:37;2.50;99.90
23562;DHT22;11959;49.418;8.728;2023-02-15T04:31:03;2.50;99.90
23562;DHT22;11959;49.418;8.728;2023-02-15T04:33:29;2.50;99.90
23562;DHT22;11959;49.418;8.728;2023-02-15T04:35:55;2.50;99.90
23562;DHT22;11959;49.418;8.728;2023-02-15T04:38:21;2.50;99.90
23562;DHT22;11959;49.418;8.728;2023-02-15T04:40:51;2.60;99.90
23562;DHT22;11959;49.418;8.728;2023-02-15T04:43:18;2.60;99.90
23562;DHT22;11959;49.418;8.728;2023-02-15T04:45:51;2.60;99.90
23562;DHT22;11959;49.418;8.728;2023-02-15T04:48:17;2.50;99.90
23562;DHT22;11959;49.418;8.728;2023-02-15T04:50:43;2.60;99.90
23562;DHT22;11959;49.418;8.728;2023-02-15T04:53:09;2.60;99.90
23562;DHT22;11959;49.418;8.728;2023-02-15T04:55:35;2.50;99.90
23562;DHT22;11959;49.418;8.728;2023-02-15T04:58:01;2.60;99.90
23562;DHT22;11959;49.418;8.728;2023-02-15T05:00:26;2.50;99.90
23562;DHT22;11959;49.418;8.728;2023-02-15T05:02:52;2.50;99.90
23562;DHT22;11959;49.418;8.728;2023-02-15T05:05:18;2.50;99.90
23562;DHT22;11959;49.418;8.728;2023-02-15T05:07:44;2.60;99.90
23562;DHT22;11959;49.418;8.728;2023-02-15T05:10:10;2.60;99.90
23562;DHT22;11959;49.418;8.728;2023-02-15T05:12:35;2.60;99.90
23562;DHT22;11959;49.418;8.728;2023-02-15T05:15:01;2.50;99.90
23562;DHT22;11959;49.418;8.728;2023-02-15T05:17:27;2.60;99.90
23562;DHT22;11959;49.418;8.728;2023-02-15T05:19:52;2.50;99.90
23562;DHT22;11959;49.418;8.728;2023-02-15T05:22:18;2.60;99.90
23562;DHT22;11959;49.418;8.728;2023-02-15T05:24:44;2.60;99.90
23562;DHT22;11959;49.418;8.728;2023-02-15T05:27:28;2.60;99.90
23562;DHT22;11959;49.418;8.728;2023-02-15T05:30:12;2.60;99.90
23562;DHT22;11959;49.418;8.728;2023-02-15T05:32:38;2.60;99.90
23562;DHT22;11959;49.418;8.728;2023-02-15T05:35:06;2.60;99.90
23562;DHT22;11959;49.418;8.728;2023-02-15T05:37:31;2.60;99.90
23562;DHT22;11959;49.418;8.728;2023-02-15T05:39:59;2.60;99.90
23562;DHT22;11959;49.418;8.728;2023-02-15T05:42:29;2.60;99.90
23562;DHT22;11959;49.418;8.728;2023-02-15T05:44:57;2.60;99.90
23562;DHT22;11959;49.418;8.728;2023-02-15T05:47:24;2.60;99.90
23562;DHT22;11959;49.418;8.728;2023-02-15T05:49:49;2.60;99.90
23562;DHT22;11959;49.418;8.728;2023-02-15T05:52:15;2.60;99.90
23562;DHT22;11959;49.418;8.728;2023-02-15T05:54:41;2.60;99.90
23562;DHT22;11959;49.418;8.728;2023-02-15T05:57:06;2.50;99.90
23562;DHT22;11959;49.418;8.728;2023-02-15T05:59:32;2.50;99.90
23562;DHT22;11959;49.418;8.728;2023-02-15T06:01:58;2.50;99.90
23562;DHT22;11959;49.418;8.728;2023-02-15T06:04:23;2.60;99.90
23562;DHT22;11959;49.418;8.728;2023-02-15T06:06:49;2.50;99.90
23562;DHT22;11959;49.418;8.728;2023-02-15T06:09:15;2.50;99.90
23562;DHT22;11959;49.418;8.728;2023-02-15T06:11:44;2.50;99.90
23562;DHT22;11959;49.418;8.728;2023-02-15T06:14:09;2.60;99.90
23562;DHT22;11959;49.418;8.728;2023-02-15T06:16:35;2.60;99.90
23562;DHT22;11959;49.418;8.728;2023-02-15T06:19:02;2.60;99.90
23562;DHT22;11959;49.418;8.728;2023-02-15T06:21:29;2.60;99.90
23562;DHT22;11959;49.418;8.728;2023-02-15T06:23:54;2.60;99.90
23562;DHT22;11959;49.418;8.728;2023-02-15T06:26:20;2.60;99.90
23562;DHT22;11959;49.418;8.728;2023-02-15T06:28:46;2.60;99.90
23562;DHT22;11959;49.418;8.728;2023-02-15T06:31:11;2.60;99.90
23562;DHT22;11959;49.418;8.728;2023-02-15T06:33:37;2.70;99.90
23562;DHT22;11959;49.418;8.728;2023-02-15T06:36:04;2.60;99.90
23562;DHT22;11959;49.418;8.728;2023-02-15T06:38:30;2.60;99.90
23562;DHT22;11959;49.418;8.728;2023-02-15T06:40:55;2.50;99.90
23562;DHT22;11959;49.418;8.728;2023-02-15T06:43:21;2.60;99.90
23562;DHT22;11959;49.418;8.728;2023-02-15T06:45:46;2.50;99.90
23562;DHT22;11959;49.418;8.728;2023-02-15T06:48:12;2.60;99.90
23562;DHT22;11959;49.418;8.728;2023-02-15T06:50:38;2.60;99.90
23562;DHT22;11959;49.418;8.728;2023-02-15T06:53:03;2.60;99.90
23562;DHT22;11959;49.418;8.728;2023-02-15T06:55:29;2.60;99.90
23562;DHT22;11959;49.418;8.728;2023-02-15T06:57:55;2.60;99.90
23562;DHT22;11959;49.418;8.728;2023-02-15T07:00:21;2.60;99.90
23562;DHT22;11959;49.418;8.728;2023-02-15T07:02:54;2.60;99.90
23562;DHT22;11959;49.418;8.728;2023-02-15T07:05:21;2.60;99.90
23562;DHT22;11959;49.418;8.728;2023-02-15T07:07:47;2.50;99.90
23562;DHT22;11959;49.418;8.728;2023-02-15T07:10:13;2.50;99.90
23562;DHT22;11959;49.418;8.728;2023-02-15T07:12:38;2.60;99.90
23562;DHT22;11959;49.418;8.728;2023-02-15T07:15:09;2.60;99.90
23562;DHT22;11959;49.418;8.728;2023-02-15T07:17:35;2.60;99.90
23562;DHT22;11959;49.418;8.728;2023-02-15T07:20:07;2.60;99.90
23562;DHT22;11959;49.418;8.728;2023-02-15T07:22:33;2.60;99.90
23562;DHT22;11959;49.418;8.728;2023-02-15T07:25:02;2.60;99.90
23562;DHT22;11959;49.418;8.728;2023-02-15T07:27:28;2.60;99.90
23562;DHT22;11959;49.418;8.728;2023-02-15T07:29:53;2.60;99.90
23562;DHT22;11959;49.418;8.728;2023-02-15T07:32:19;2.60;99.90
23562;DHT22;11959;49.418;8.728;2023-02-15T07:34:45;2.60;99.90
23562;DHT22;11959;49.418;8.728;2023-02-15T07:37:10;2.60;99.90
23562;DHT22;11959;49.418;8.728;2023-02-15T07:39:36;2.60;99.90
23562;DHT22;11959;49.418;8.728;2023-02-15T07:42:01;2.60;99.90
23562;DHT22;11959;49.418;8.728;2023-02-15T07:44:27;2.60;99.90
23562;DHT22;11959;49.418;8.728;2023-02-15T07:46:53;2.60;99.90
23562;DHT22;11959;49.418;8.728;2023-02-15T07:49:18;2.60;99.90
23562;DHT22;11959;49.418;8.728;2023-02-15T07:51:44;2.60;99.90
23562;DHT22;11959;49.418;8.728;2023-02-15T07:54:10;2.70;99.90
23562;DHT22;11959;49.418;8.728;2023-02-15T07:56:35;2.70;99.90
23562;DHT22;11959;49.418;8.728;2023-02-15T07:59:01;2.80;99.90
23562;DHT22;11959;49.418;8.728;2023-02-15T08:01:33;2.80;99.90
23562;DHT22;11959;49.418;8.728;2023-02-15T08:03:59;2.70;99.90
23562;DHT22;11959;49.418;8.728;2023-02-15T08:06:27;2.70;99.90
23562;DHT22;11959;49.418;8.728;2023-02-15T08:08:53;2.80;99.90
23562;DHT22;11959;49.418;8.728;2023-02-15T08:18:59;2.80;99.90
23562;DHT22;11959;49.418;8.728;2023-02-15T08:21:27;2.80;99.90
23562;DHT22;11959;49.418;8.728;2023-02-15T08:23:54;2.80;99.90
23562;DHT22;11959;49.418;8.728;2023-02-15T08:26:20;2.80;99.90
23562;DHT22;11959;49.418;8.728;2023-02-15T08:28:45;2.80;99.90
23562;DHT22;11959;49.418;8.728;2023-02-15T08:31:13;2.80;99.90
23562;DHT22;11959;49.418;8.728;2023-02-15T08:33:40;2.80;99.90
23562;DHT22;11959;49.418;8.728;2023-02-15T08:36:08;2.80;99.90
23562;DHT22;11959;49.418;8.728;2023-02-15T08:38:34;2.80;99.90
23562;DHT22;11959;49.418;8.728;2023-02-15T08:41:21;2.80;99.90
23562;DHT22;11959;49.418;8.728;2023-02-15T08:43:49;2.70;99.90
23562;DHT22;11959;49.418;8.728;2023-02-15T08:46:16;2.70;99.90
23562;DHT22;11959;49.418;8.728;2023-02-15T08:48:43;2.80;99.90
23562;DHT22;11959;49.418;8.728;2023-02-15T08:51:12;2.80;99.90
23562;DHT22;11959;49.418;8.728;2023-02-15T08:53:39;2.70;99.90
23562;DHT22;11959;49.418;8.728;2023-02-15T08:56:06;2.80;99.90
23562;DHT22;11959;49.418;8.728;2023-02-15T08:58:32;2.80;99.90
23562;DHT22;11959;49.418;8.728;2023-02-15T09:00:58;2.80;99.90
23562;DHT22;11959;49.418;8.728;2023-02-15T09:03:23;2.80;99.90
23562;DHT22;11959;49.418;8.728;2023-02-15T09:05:49;2.80;99.90
23562;DHT22;11959;49.418;8.728;2023-02-15T09:08:15;2.90;99.90
23562;DHT22;11959;49.418;8.728;2023-02-15T09:10:41;2.90;99.90
23562;DHT22;11959;49.418;8.728;2023-02-15T09:13:07;2.90;99.90
23562;DHT22;11959;49.418;8.728;2023-02-15T09:15:33;2.90;99.90
23562;DHT22;11959;49.418;8.728;2023-02-15T09:17:58;2.90;99.90
23562;DHT22;11959;49.418;8.728;2023-02-15T09:20:27;2.90;99.90
23562;DHT22;11959;49.418;8.728;2023-02-15T09:22:53;3.00;99.90
23562;DHT22;11959;49.418;8.728;2023-02-15T09:25:19;3.00;99.90
23562;DHT22;11959;49.418;8.728;2023-02-15T09:27:45;2.90;99.90
23562;DHT22;11959;49.418;8.728;2023-02-15T09:30:11;2.90;99.90
23562;DHT22;11959;49.418;8.728;2023-02-15T09:32:37;2.90;99.90
23562;DHT22;11959;49.418;8.728;2023-02-15T09:35:03;2.90;99.90
23562;DHT22;11959;49.418;8.728;2023-02-15T09:37:30;2.90;99.90
23562;DHT22;11959;49.418;8.728;2023-02-15T09:39:57;3.00;99.90
23562;DHT22;11959;49.418;8.728;2023-02-15T09:56:29;3.20;99.90
23562;DHT22;11959;49.418;8.728;2023-02-15T09:59:11;3.20;99.90
23562;DHT22;11959;49.418;8.728;2023-02-15T10:02:07;3.30;99.90
23562;DHT22;11959;49.418;8.728;2023-02-15T10:17:41;3.40;99.90
23562;DHT22;11959;49.418;8.728;2023-02-15T10:28:05;3.40;99.90
23562;DHT22;11959;49.418;8.728;2023-02-15T10:30:52;3.50;99.90
23562;DHT22;11959;49.418;8.728;2023-02-15T10:33:30;3.50;99.90
23562;DHT22;11959;49.418;8.728;2023-02-15T10:46:57;3.60;99.90
23562;DHT22;11959;49.418;8.728;2023-02-15T10:49:55;3.60;99.90
23562;DHT22;11959;49.418;8.728;2023-02-15T11:00:47;3.70;99.90
23562;DHT22;11959;49.418;8.728;2023-02-15T11:06:07;3.80;99.90
23562;DHT22;11959;49.418;8.728;2023-02-15T11:08:45;3.80;99.90
23562;DHT22;11959;49.418;8.728;2023-02-15T11:11:41;3.80;99.90
23562;DHT22;11959;49.418;8.728;2023-02-15T11:14:23;3.90;99.90
23562;DHT22;11959;49.418;8.728;2023-02-15T11:16:57;3.90;99.90
23562;DHT22;11959;49.418;8.728;2023-02-15T11:19:51;4.00;99.90
23562;DHT22;11959;49.418;8.728;2023-02-15T11:22:19;4.10;99.90
23562;DHT22;11959;49.418;8.728;2023-02-15T11:24:46;4.10;99.90
23562;DHT22;11959;49.418;8.728;2023-02-15T11:27:23;4.20;99.90
23562;DHT22;11959;49.418;8.728;2023-02-15T11:32:32;4.30;99.90
23562;DHT22;11959;49.418;8.728;2023-02-15T11:37:54;4.30;99.90
23562;DHT22;11959;49.418;8.728;2023-02-15T11:40:33;4.30;99.90
23562;DHT22;11959;49.418;8.728;2023-02-15T11:43:05;4.30;99.90
23562;DHT22;11959;49.418;8.728;2023-02-15T11:45:33;4.40;99.90
23562;DHT22;11959;49.418;8.728;2023-02-15T11:48:00;4.40;99.90
23562;DHT22;11959;49.418;8.728;2023-02-15T11:50:31;4.30;99.90
23562;DHT22;11959;49.418;8.728;2023-02-15T11:53:02;4.30;99.90
23562;DHT22;11959;49.418;8.728;2023-02-15T11:55:29;4.40;99.90
23562;DHT22;11959;49.418;8.728;2023-02-15T12:00:53;4.50;99.90
23562;DHT22;11959;49.418;8.728;2023-02-15T12:05:53;4.50;99.90
23562;DHT22;11959;49.418;8.728;2023-02-15T12:08:22;4.50;99.90
23562;DHT22;11959;49.418;8.728;2023-02-15T12:11:09;4.50;99.90
23562;DHT22;11959;49.418;8.728;2023-02-15T12:13:54;4.50;99.90
23562;DHT22;11959;49.418;8.728;2023-02-15T12:16:20;4.60;99.90
23562;DHT22;11959;49.418;8.728;2023-02-15T12:18:47;4.60;99.90
23562;DHT22;11959;49.418;8.728;2023-02-15T12:21:23;4.70;99.90
23562;DHT22;11959;49.418;8.728;2023-02-15T12:24:20;4.70;99.90
23562;DHT22;11959;49.418;8.728;2023-02-15T12:26:57;4.80;99.90
23562;DHT22;11959;49.418;8.728;2023-02-15T12:29:27;4.90;99.90
23562;DHT22;11959;49.418;8.728;2023-02-15T12:31:54;5.00;99.90
23562;DHT22;11959;49.418;8.728;2023-02-15T12:34:29;5.00;99.90
23562;DHT22;11959;49.418;8.728;2023-02-15T12:36:57;5.10;99.90
23562;DHT22;11959;49.418;8.728;2023-02-15T12:39:30;5.10;99.90
23562;DHT22;11959;49.418;8.728;2023-02-15T12:42:16;5.20;99.90
23562;DHT22;11959;49.418;8.728;2023-02-15T12:45:01;5.20;99.90
23562;DHT22;11959;49.418;8.728;2023-02-15T12:47:28;5.30;99.90
23562;DHT22;11959;49.418;8.728;2023-02-15T12:52:30;5.40;99.90
23562;DHT22;11959;49.418;8.728;2023-02-15T12:55:20;5.40;99.90
23562;DHT22;11959;49.418;8.728;2023-02-15T12:57:46;5.40;99.90
23562;DHT22;11959;49.418;8.728;2023-02-15T13:02:47;5.40;99.90
23562;DHT22;11959;49.418;8.728;2023-02-15T13:05:43;5.40;99.90
23562;DHT22;11959;49.418;8.728;2023-02-15T13:08:20;5.40;99.90
23562;DHT22;11959;49.418;8.728;2023-02-15T13:13:29;5.40;99.90
23562;DHT22;11959;49.418;8.728;2023-02-15T13:15:59;5.30;99.90
23562;DHT22;11959;49.418;8.728;2023-02-15T13:18:42;5.30;99.90
23562;DHT22;11959;49.418;8.728;2023-02-15T13:23:38;5.30;99.90
23562;DHT22;11959;49.418;8.728;2023-02-15T13:26:08;5.30;99.90
23562;DHT22;11959;49.418;8.728;2023-02-15T13:28:40;5.40;99.90
23562;DHT22;11959;49.418;8.728;2023-02-15T13:31:18;5.30;99.90
23562;DHT22;11959;49.418;8.728;2023-02-15T13:33:49;5.30;99.90
23562;DHT22;11959;49.418;8.728;2023-02-15T13:41:36;5.40;99.90
23562;DHT22;11959;49.418;8.728;2023-02-15T13:44:13;5.40;99.90
23562;DHT22;11959;49.418;8.728;2023-02-15T13:47:48;5.50;99.90
23562;DHT22;11959;49.418;8.728;2023-02-15T13:52:28;5.60;99.90
23562;DHT22;11959;49.418;8.728;2023-02-15T13:55:27;5.70;99.90
23562;DHT22;11959;49.418;8.728;2023-02-15T13:58:29;5.60;99.90
23562;DHT22;11959;49.418;8.728;2023-02-15T14:06:29;5.40;99.90
23562;DHT22;11959;49.418;8.728;2023-02-15T14:09:07;5.40;99.90
23562;DHT22;11959;49.418;8.728;2023-02-15T14:19:46;5.40;99.90
23562;DHT22;11959;49.418;8.728;2023-02-15T14:22:40;5.40;99.90
23562;DHT22;11959;49.418;8.728;2023-02-15T14:30:39;5.30;99.90
23562;DHT22;11959;49.418;8.728;2023-02-15T14:35:42;5.30;99.90
23562;DHT22;11959;49.418;8.728;2023-02-15T14:40:59;5.30;99.90
23562;DHT22;11959;49.418;8.728;2023-02-15T14:49:11;5.20;99.90
23562;DHT22;11959;49.418;8.728;2023-02-15T14:54:09;5.20;99.90
23562;DHT22;11959;49.418;8.728;2023-02-15T14:56:35;5.20;99.90
23562;DHT22;11959;49.418;8.728;2023-02-15T14:59:20;5.20;99.90
23562;DHT22;11959;49.418;8.728;2023-02-15T15:01:57;5.20;99.90
23562;DHT22;11959;49.418;8.728;2023-02-15T15:04:39;5.20;99.90
23562;DHT22;11959;49.418;8.728;2023-02-15T15:09:34;5.20;99.90
23562;DHT22;11959;49.418;8.728;2023-02-15T15:14:47;5.20;99.90
23562;DHT22;11959;49.418;8.728;2023-02-15T15:22:49;5.10;99.90
23562;DHT22;11959;49.418;8.728;2023-02-15T15:28:02;5.10;99.90
23562;DHT22;11959;49.418;8.728;2023-02-15T15:49:30;4.90;99.90
23562;DHT22;11959;49.418;8.728;2023-02-15T15:52:07;4.90;99.90
23562;DHT22;11959;49.418;8.728;2023-02-15T15:54:38;4.90;99.90
23562;DHT22;11959;49.418;8.728;2023-02-15T15:57:05;4.90;99.90
23562;DHT22;11959;49.418;8.728;2023-02-15T15:59:33;4.90;99.90
23562;DHT22;11959;49.418;8.728;2023-02-15T16:02:07;4.80;99.90
23562;DHT22;11959;49.418;8.728;2023-02-15T16:04:34;4.90;99.90
23562;DHT22;11959;49.418;8.728;2023-02-15T16:12:19;4.80;99.90
23562;DHT22;11959;49.418;8.728;2023-02-15T16:14:45;4.80;99.90
23562;DHT22;11959;49.418;8.728;2023-02-15T16:17:34;4.80;99.90
23562;DHT22;11959;49.418;8.728;2023-02-15T16:20:14;4.80;99.90
23562;DHT22;11959;49.418;8.728;2023-02-15T16:22:40;4.70;99.90
23562;DHT22;11959;49.418;8.728;2023-02-15T16:25:40;4.70;99.90
23562;DHT22;11959;49.418;8.728;2023-02-15T16:28:13;4.60;99.90
23562;DHT22;11959;49.418;8.728;2023-02-15T16:30:40;4.60;99.90
23562;DHT22;11959;49.418;8.728;2023-02-15T16:33:13;4.50;99.90
23562;DHT22;11959;49.418;8.728;2023-02-15T16:35:41;4.50;99.90
23562;DHT22;11959;49.418;8.728;2023-02-15T16:38:19;4.40;99.90
23562;DHT22;11959;49.418;8.728;2023-02-15T16:40:52;4.40;99.90
23562;DHT22;11959;49.418;8.728;2023-02-15T16:43:26;4.30;99.90
23562;DHT22;11959;49.418;8.728;2023-02-15T16:46:02;4.30;99.90
23562;DHT22;11959;49.418;8.728;2023-02-15T16:48:28;4.20;99.90
23562;DHT22;11959;49.418;8.728;2023-02-15T16:50:56;4.20;99.90
23562;DHT22;11959;49.418;8.728;2023-02-15T16:53:26;4.10;99.90
23562;DHT22;11959;49.418;8.728;2023-02-15T16:55:58;4.00;99.90
23562;DHT22;11959;49.418;8.728;2023-02-15T16:58:42;3.90;99.90
23562;DHT22;11959;49.418;8.728;2023-02-15T17:01:11;3.90;99.90
23562;DHT22;11959;49.418;8.728;2023-02-15T17:03:39;3.80;99.90
23562;DHT22;11959;49.418;8.728;2023-02-15T17:06:20;3.80;99.90
23562;DHT22;11959;49.418;8.728;2023-02-15T17:08:46;3.70;99.90
23562;DHT22;11959;49.418;8.728;2023-02-15T17:11:20;3.70;99.90
23562;DHT22;11959;49.418;8.728;2023-02-15T17:14:11;3.70;99.90
23562;DHT22;11959;49.418;8.728;2023-02-15T17:16:50;3.70;99.90
23562;DHT22;11959;49.418;8.728;2023-02-15T17:19:33;3.70;99.90
23562;DHT22;11959;49.418;8.728;2023-02-15T17:22:02;3.70;99.90
23562;DHT22;11959;49.418;8.728;2023-02-15T17:24:39;3.60;99.90
23562;DHT22;11959;49.418;8.728;2023-02-15T17:29:48;3.50;99.90
23562;DHT22;11959;49.418;8.728;2023-02-15T17:32:23;3.50;99.90
23562;DHT22;11959;49.418;8.728;2023-02-15T17:34:59;3.50;99.90
23562;DHT22;11959;49.418;8.728;2023-02-15T17:40:40;3.50;99.90
23562;DHT22;11959;49.418;8.728;2023-02-15T17:43:05;3.50;99.90
23562;DHT22;11959;49.418;8.728;2023-02-15T17:45:34;3.50;99.90
23562;DHT22;11959;49.418;8.728;2023-02-15T17:48:03;3.50;99.90
23562;DHT22;11959;49.418;8.728;2023-02-15T17:50:30;3.50;99.90
23562;DHT22;11959;49.418;8.728;2023-02-15T17:52:56;3.50;99.90
23562;DHT22;11959;49.418;8.728;2023-02-15T17:55:24;3.50;99.90
23562;DHT22;11959;49.418;8.728;2023-02-15T18:00:36;3.40;99.90
23562;DHT22;11959;49.418;8.728;2023-02-15T18:03:23;3.40;99.90
23562;DHT22;11959;49.418;8.728;2023-02-15T18:06:08;3.40;99.90
23562;DHT22;11959;49.418;8.728;2023-02-15T18:08:53;3.40;99.90
23562;DHT22;11959;49.418;8.728;2023-02-15T18:11:37;3.30;99.90
23562;DHT22;11959;49.418;8.728;2023-02-15T18:14:08;3.30;99.90
23562;DHT22;11959;49.418;8.728;2023-02-15T18:16:39;3.20;99.90
23562;DHT22;11959;49.418;8.728;2023-02-15T18:19:13;3.10;99.90
23562;DHT22;11959;49.418;8.728;2023-02-15T18:21:39;3.10;99.90
23562;DHT22;11959;49.418;8.728;2023-02-15T18:24:07;3.10;99.90
23562;DHT22;11959;49.418;8.728;2023-02-15T18:26:38;3.00;99.90
23562;DHT22;11959;49.418;8.728;2023-02-15T18:29:03;3.00;99.90
23562;DHT22;11959;49.418;8.728;2023-02-15T18:31:29;3.00;99.90
23562;DHT22;11959;49.418;8.728;2023-02-15T18:33:58;3.00;99.90
23562;DHT22;11959;49.418;8.728;2023-02-15T18:36:39;3.00;99.90
23562;DHT22;11959;49.418;8.728;2023-02-15T18:39:28;2.90;99.90
23562;DHT22;11959;49.418;8.728;2023-02-15T18:41:55;2.90;99.90
23562;DHT22;11959;49.418;8.728;2023-02-15T18:44:21;2.90;99.90
23562;DHT22;11959;49.418;8.728;2023-02-15T18:46:48;2.90;99.90
23562;DHT22;11959;49.418;8.728;2023-02-15T18:49:13;2.90;99.90
23562;DHT22;11959;49.418;8.728;2023-02-15T18:51:39;2.90;99.90
23562;DHT22;11959;49.418;8.728;2023-02-15T18:54:21;2.80;99.90
23562;DHT22;11959;49.418;8.728;2023-02-15T18:56:54;2.90;99.90
23562;DHT22;11959;49.418;8.728;2023-02-15T18:59:21;2.80;99.90
23562;DHT22;11959;49.418;8.728;2023-02-15T19:01:46;2.80;99.90
23562;DHT22;11959;49.418;8.728;2023-02-15T19:04:12;2.80;99.90
23562;DHT22;11959;49.418;8.728;2023-02-15T19:06:42;2.80;99.90
23562;DHT22;11959;49.418;8.728;2023-02-15T19:09:17;2.70;99.90
23562;DHT22;11959;49.418;8.728;2023-02-15T19:11:48;2.70;99.90
23562;DHT22;11959;49.418;8.728;2023-02-15T19:14:28;2.60;99.90
23562;DHT22;11959;49.418;8.728;2023-02-15T19:16:55;2.70;99.90
23562;DHT22;11959;49.418;8.728;2023-02-15T19:19:22;2.60;99.90
23562;DHT22;11959;49.418;8.728;2023-02-15T19:21:48;2.60;99.90
23562;DHT22;11959;49.418;8.728;2023-02-15T19:24:41;2.50;99.90
23562;DHT22;11959;49.418;8.728;2023-02-15T19:27:06;2.50;99.90
23562;DHT22;11959;49.418;8.728;2023-02-15T19:29:35;2.60;99.90
23562;DHT22;11959;49.418;8.728;2023-02-15T19:32:01;2.50;99.90
23562;DHT22;11959;49.418;8.728;2023-02-15T19:34:26;2.40;99.90
23562;DHT22;11959;49.418;8.728;2023-02-15T19:36:53;2.50;99.90
23562;DHT22;11959;49.418;8.728;2023-02-15T19:39:29;2.50;99.90
23562;DHT22;11959;49.418;8.728;2023-02-15T19:41:57;2.40;99.90